createdAt,value
2019-05-03T00:00:19.536Z,0.00
2019-05-03T00:01:21.757Z,0.00
2019-05-03T00:03:23.926Z,0.00
2019-05-03T00:04:24.166Z,0.00
2019-05-03T00:06:28.343Z,0.00
2019-05-03T00:07:28.580Z,0.00
2019-05-03T00:09:32.733Z,0.00
2019-05-03T00:10:32.969Z,0.00
2019-05-03T00:12:37.144Z,0.00
2019-05-03T00:13:37.389Z,0.00
2019-05-03T00:15:42.889Z,0.00
2019-05-03T00:16:41.791Z,0.00
2019-05-03T00:18:46.992Z,0.00
2019-05-03T00:19:47.227Z,0.00
2019-05-03T00:21:41.925Z,0.00
2019-05-03T00:22:41.908Z,0.00
2019-05-03T00:24:44.729Z,0.00
2019-05-03T00:25:44.960Z,0.00
2019-05-03T00:27:49.139Z,0.00
2019-05-03T00:28:49.377Z,0.00
2019-05-03T00:30:53.568Z,0.00
2019-05-03T00:31:53.795Z,0.00
2019-05-03T00:33:57.949Z,0.00
2019-05-03T00:34:58.184Z,0.00
2019-05-03T00:37:02.362Z,0.00
2019-05-03T00:38:02.597Z,0.00
2019-05-03T00:40:06.766Z,0.00
2019-05-03T00:41:06.996Z,0.00
2019-05-03T00:43:11.647Z,0.00
2019-05-03T00:44:11.620Z,0.00
2019-05-03T00:46:15.768Z,0.00
2019-05-03T00:47:16.022Z,0.00
2019-05-03T00:49:20.177Z,0.00
2019-05-03T00:50:22.461Z,0.00
2019-05-03T00:52:13.515Z,0.00
2019-05-03T00:53:13.750Z,0.00
2019-05-03T00:55:19.318Z,0.00
2019-05-03T00:56:18.136Z,0.00
2019-05-03T00:58:22.544Z,0.00
2019-05-03T00:59:22.555Z,0.00
2019-05-03T01:01:26.728Z,0.00
2019-05-03T01:02:26.964Z,0.00
2019-05-03T01:04:31.800Z,0.00
2019-05-03T01:05:33.152Z,0.00
2019-05-03T01:07:35.551Z,0.00
2019-05-03T01:08:35.790Z,0.00
2019-05-03T01:10:39.949Z,0.00
2019-05-03T01:11:41.826Z,0.00
2019-05-03T01:13:44.364Z,0.00
2019-05-03T01:14:44.614Z,0.00
2019-05-03T01:16:48.766Z,0.00
2019-05-03T01:17:49.004Z,0.00
2019-05-03T01:19:53.180Z,0.00
2019-05-03T01:20:53.415Z,0.00
2019-05-03T01:22:57.595Z,0.00
2019-05-03T01:23:57.831Z,0.00
2019-05-03T01:26:02.439Z,0.00
2019-05-03T01:27:02.225Z,0.00
2019-05-03T01:29:06.399Z,0.00
2019-05-03T01:30:06.634Z,0.00
2019-05-03T01:31:59.716Z,0.00
2019-05-03T01:32:59.952Z,0.00
2019-05-03T01:35:04.132Z,0.00
2019-05-03T01:36:04.370Z,0.00
2019-05-03T01:38:08.546Z,0.00
2019-05-03T01:39:08.780Z,0.00
2019-05-03T01:41:12.935Z,0.00
2019-05-03T01:42:13.171Z,0.00
2019-05-03T01:44:17.342Z,0.00
2019-05-03T01:45:17.578Z,0.00
2019-05-03T01:47:21.993Z,0.00
2019-05-03T01:48:21.998Z,0.00
2019-05-03T01:50:26.171Z,0.00
2019-05-03T01:51:26.407Z,0.00
2019-05-03T01:53:32.236Z,0.00
2019-05-03T01:54:32.123Z,0.00
2019-05-03T01:56:34.975Z,0.00
2019-05-03T01:57:35.210Z,0.00
2019-05-03T01:59:39.381Z,0.00
2019-05-03T02:00:39.616Z,0.00
2019-05-03T02:02:43.769Z,0.00
2019-05-03T02:03:44.006Z,0.00
2019-05-03T02:05:48.185Z,0.00
2019-05-03T02:06:48.417Z,0.00
2019-05-03T02:08:52.599Z,0.00
2019-05-03T02:09:52.833Z,0.00
2019-05-03T02:11:45.927Z,0.00
2019-05-03T02:12:46.158Z,0.00
2019-05-03T02:14:51.687Z,0.00
2019-05-03T02:15:52.688Z,0.00
2019-05-03T02:17:54.739Z,0.00
2019-05-03T02:18:54.971Z,0.00
2019-05-03T02:20:59.151Z,0.00
2019-05-03T02:21:59.386Z,0.00
2019-05-03T02:24:03.560Z,0.00
2019-05-03T02:25:03.797Z,0.00
2019-05-03T02:27:07.949Z,0.00
2019-05-03T02:28:08.185Z,0.00
2019-05-03T02:30:14.074Z,0.00
2019-05-03T02:31:13.631Z,0.00
2019-05-03T02:33:16.756Z,0.00
2019-05-03T02:34:16.993Z,0.00
2019-05-03T02:36:23.260Z,0.00
2019-05-03T02:37:22.479Z,0.00
2019-05-03T02:39:25.592Z,0.00
2019-05-03T02:40:25.826Z,0.00
2019-05-03T02:42:29.975Z,0.00
2019-05-03T02:43:30.213Z,0.00
2019-05-03T02:45:35.210Z,0.00
2019-05-03T02:46:36.211Z,0.00
2019-05-03T02:48:39.803Z,0.00
2019-05-03T02:49:40.044Z,0.00
2019-05-03T02:51:35.849Z,0.00
2019-05-03T02:52:36.553Z,0.00
2019-05-03T02:54:37.550Z,0.00
2019-05-03T02:55:37.786Z,0.00
2019-05-03T02:57:41.950Z,0.00
2019-05-03T02:58:42.181Z,0.00
2019-05-03T03:00:46.359Z,0.00
2019-05-03T03:01:46.656Z,0.00
2019-05-03T03:03:50.754Z,0.00
2019-05-03T03:04:50.993Z,0.00
2019-05-03T03:06:55.650Z,0.00
2019-05-03T03:07:56.014Z,0.00
2019-05-03T03:09:59.581Z,0.00
2019-05-03T03:10:59.818Z,0.00
2019-05-03T03:13:05.879Z,0.00
2019-05-03T03:14:05.773Z,0.00
2019-05-03T03:16:08.400Z,0.00
2019-05-03T03:17:08.628Z,0.00
2019-05-03T03:19:15.749Z,4.00
2019-05-03T03:20:15.887Z,4.00
2019-05-03T03:22:06.199Z,4.00
2019-05-03T03:23:06.364Z,4.00
2019-05-03T03:25:10.545Z,8.00
2019-05-03T03:26:10.785Z,4.00
2019-05-03T03:28:15.851Z,8.00
2019-05-03T03:29:15.985Z,4.00
2019-05-03T03:31:19.348Z,8.00
2019-05-03T03:32:19.776Z,8.00
2019-05-03T03:34:27.991Z,8.00
2019-05-03T03:35:29.171Z,8.00
2019-05-03T03:37:28.152Z,8.00
2019-05-03T03:38:28.392Z,8.00
2019-05-03T03:40:32.556Z,8.00
2019-05-03T03:41:35.223Z,12.00
2019-05-03T03:43:36.941Z,20.00
2019-05-03T03:44:37.175Z,24.00
2019-05-03T03:46:41.346Z,32.00
2019-05-03T03:47:41.584Z,36.00
2019-05-03T03:49:46.297Z,44.00
2019-05-03T03:50:45.973Z,40.00
2019-05-03T03:52:50.149Z,44.00
2019-05-03T03:53:50.390Z,48.00
2019-05-03T03:55:56.404Z,56.00
2019-05-03T03:57:03.282Z,56.00
2019-05-03T03:58:58.936Z,72.00
2019-05-03T03:59:59.175Z,88.00
2019-05-03T04:01:52.278Z,124.00
2019-05-03T04:02:55.057Z,136.00
2019-05-03T04:04:56.662Z,148.00
2019-05-03T04:05:56.902Z,148.00
2019-05-03T04:08:01.069Z,140.00
2019-05-03T04:09:01.302Z,132.00
2019-05-03T04:11:06.327Z,140.00
2019-05-03T04:12:06.168Z,148.00
2019-05-03T04:14:09.864Z,172.00
2019-05-03T04:15:10.103Z,184.00
2019-05-03T04:17:15.041Z,264.00
2019-05-03T04:18:16.376Z,284.00
2019-05-03T04:20:18.681Z,340.00
2019-05-03T04:21:18.912Z,376.00
2019-05-03T04:23:23.081Z,416.00
2019-05-03T04:24:25.690Z,432.00
2019-05-03T04:26:29.728Z,484.00
2019-05-03T04:27:27.984Z,524.00
2019-05-03T04:29:31.875Z,660.00
2019-05-03T04:30:32.110Z,716.00
2019-05-03T04:32:36.300Z,812.00
2019-05-03T04:33:36.527Z,868.00
2019-05-03T04:35:40.678Z,976.00
2019-05-03T04:36:40.914Z,1024.00
2019-05-03T04:38:45.456Z,1128.00
2019-05-03T04:39:45.862Z,1168.00
2019-05-03T04:41:38.415Z,1232.00
2019-05-03T04:42:38.647Z,1232.00
2019-05-03T04:44:45.362Z,1328.00
2019-05-03T04:45:45.469Z,1336.00
2019-05-03T04:47:47.229Z,1308.00
2019-05-03T04:48:47.437Z,1332.00
2019-05-03T04:50:51.594Z,1416.00
2019-05-03T04:51:51.830Z,1444.00
2019-05-03T04:53:56.002Z,1388.00
2019-05-03T04:54:56.748Z,1360.00
2019-05-03T04:57:00.414Z,1372.00
2019-05-03T04:58:00.647Z,1412.00
2019-05-03T05:00:05.630Z,1504.00
2019-05-03T05:01:06.201Z,1544.00
2019-05-03T05:03:09.207Z,1660.00
2019-05-03T05:04:09.445Z,1680.00
2019-05-03T05:06:15.397Z,1608.00
2019-05-03T05:07:15.597Z,1576.00
2019-05-03T05:09:19.079Z,1648.00
2019-05-03T05:10:19.309Z,1724.00
2019-05-03T05:12:12.416Z,1940.00
2019-05-03T05:13:12.651Z,2056.00
2019-05-03T05:15:16.808Z,2236.00
2019-05-03T05:16:17.048Z,2372.00
2019-05-03T05:18:21.220Z,2576.00
2019-05-03T05:19:21.455Z,2648.00
2019-05-03T05:21:25.610Z,2964.00
2019-05-03T05:22:25.847Z,3164.00
2019-05-03T05:24:30.019Z,3452.00
2019-05-03T05:25:30.257Z,3600.00
2019-05-03T05:27:35.812Z,3828.00
2019-05-03T05:28:35.525Z,3740.00
2019-05-03T05:30:38.835Z,3740.00
2019-05-03T05:31:39.071Z,4012.00
2019-05-03T05:33:44.646Z,4792.00
2019-05-03T05:34:43.488Z,5200.00
2019-05-03T05:36:47.639Z,6552.00
2019-05-03T05:37:47.879Z,6872.00
2019-05-03T05:39:52.052Z,6948.00
2019-05-03T05:40:52.289Z,6868.00
2019-05-03T05:42:56.468Z,6548.00
2019-05-03T05:43:56.713Z,6436.00
2019-05-03T05:46:00.855Z,6180.00
2019-05-03T05:47:01.094Z,6088.00
2019-05-03T05:49:05.274Z,6204.00
2019-05-03T05:50:05.517Z,6164.00
2019-05-03T05:51:59.082Z,6384.00
2019-05-03T05:52:59.328Z,6400.00
2019-05-03T05:55:04.617Z,6784.00
2019-05-03T05:56:05.030Z,7236.00
2019-05-03T05:58:08.446Z,7844.00
2019-05-03T05:59:08.142Z,7884.00
2019-05-03T06:01:14.478Z,7648.00
2019-05-03T06:02:12.543Z,7412.00
2019-05-03T06:04:16.702Z,7008.00
2019-05-03T06:05:16.942Z,7444.00
2019-05-03T06:07:21.097Z,8712.00
2019-05-03T06:08:21.334Z,9056.00
2019-05-03T06:10:25.511Z,9224.00
2019-05-03T06:11:25.871Z,9428.00
2019-05-03T06:13:29.918Z,9980.00
2019-05-03T06:14:30.154Z,9432.00
2019-05-03T06:16:34.839Z,7876.00
2019-05-03T06:17:34.893Z,6720.00
2019-05-03T06:19:38.725Z,6968.00
2019-05-03T06:20:38.963Z,6272.00
2019-05-03T06:22:44.816Z,4936.00
2019-05-03T06:23:45.063Z,5288.00
2019-05-03T06:25:47.548Z,4256.00
2019-05-03T06:26:47.790Z,4144.00
2019-05-03T06:28:51.967Z,3764.00
2019-05-03T06:29:52.205Z,3560.00
2019-05-03T06:31:45.285Z,3300.00
2019-05-03T06:32:45.524Z,3144.00
2019-05-03T06:34:49.703Z,2412.00
2019-05-03T06:35:49.938Z,2228.00
2019-05-03T06:37:54.580Z,2188.00
2019-05-03T06:38:54.745Z,2228.00
2019-05-03T06:40:58.509Z,2536.00
2019-05-03T06:41:58.747Z,2804.00
2019-05-03T06:44:04.354Z,3392.00
2019-05-03T06:45:10.130Z,3412.00
2019-05-03T06:47:10.458Z,3512.00
2019-05-03T06:48:08.039Z,3496.00
2019-05-03T06:50:14.347Z,3196.00
2019-05-03T06:51:19.250Z,3096.00
2019-05-03T06:53:17.105Z,3224.00
2019-05-03T06:54:20.696Z,3496.00
2019-05-03T06:56:24.981Z,4164.00
2019-05-03T06:57:22.260Z,4408.00
2019-05-03T06:59:27.921Z,4648.00
2019-05-03T07:00:28.148Z,4620.00
2019-05-03T07:02:32.791Z,4652.00
2019-05-03T07:03:33.028Z,4632.00
2019-05-03T07:05:37.718Z,5168.00
2019-05-03T07:06:40.615Z,5468.00
2019-05-03T07:08:45.429Z,6076.00
2019-05-03T07:09:44.476Z,6440.00
2019-05-03T07:11:36.443Z,6800.00
2019-05-03T07:12:36.681Z,7140.00
2019-05-03T07:14:41.355Z,7516.00
2019-05-03T07:15:41.591Z,7532.00
2019-05-03T07:17:46.246Z,8412.00
2019-05-03T07:18:46.482Z,8820.00
2019-05-03T07:20:51.158Z,8976.00
2019-05-03T07:21:51.395Z,8872.00
2019-05-03T07:23:55.559Z,9128.00
2019-05-03T07:24:55.798Z,9268.00
2019-05-03T07:27:00.479Z,8972.00
2019-05-03T07:28:00.719Z,8992.00
2019-05-03T07:30:05.389Z,8940.00
2019-05-03T07:31:05.630Z,8832.00
2019-05-03T07:33:10.278Z,9380.00
2019-05-03T07:34:10.515Z,9320.00
2019-05-03T07:36:15.439Z,9524.00
2019-05-03T07:37:15.428Z,10124.00
2019-05-03T07:39:19.579Z,10108.00
2019-05-03T07:40:19.817Z,10276.00
2019-05-03T07:42:15.517Z,10472.00
2019-05-03T07:43:14.885Z,9976.00
2019-05-03T07:45:18.341Z,10032.00
2019-05-03T07:46:18.581Z,10256.00
2019-05-03T07:48:22.747Z,10012.00
2019-05-03T07:49:24.893Z,9800.00
2019-05-03T07:51:27.653Z,8456.00
2019-05-03T07:52:27.893Z,8060.00
2019-05-03T07:54:34.706Z,7416.00
2019-05-03T07:55:32.789Z,7164.00
2019-05-03T07:57:37.469Z,6824.00
2019-05-03T07:58:37.707Z,6832.00
2019-05-03T08:00:44.427Z,7384.00
2019-05-03T08:01:42.630Z,7776.00
2019-05-03T08:03:46.804Z,8804.00
2019-05-03T08:04:47.043Z,9024.00
2019-05-03T08:06:51.224Z,9024.00
2019-05-03T08:07:51.461Z,9080.00
2019-05-03T08:09:55.732Z,9488.00
2019-05-03T08:10:55.864Z,9776.00
2019-05-03T08:13:00.549Z,10528.00
2019-05-03T08:14:00.786Z,10836.00
2019-05-03T08:16:05.851Z,12376.00
2019-05-03T08:17:05.285Z,13548.00
2019-05-03T08:19:09.366Z,15440.00
2019-05-03T08:20:09.602Z,16224.00
2019-05-03T08:22:04.832Z,17248.00
2019-05-03T08:23:05.319Z,17376.00
2019-05-03T08:25:08.111Z,17888.00
2019-05-03T08:26:08.348Z,18752.00
2019-05-03T08:28:14.637Z,23104.00
2019-05-03T08:29:16.991Z,25632.00
2019-05-03T08:31:17.934Z,28832.00
2019-05-03T08:32:18.171Z,28064.00
2019-05-03T08:34:25.747Z,30048.00
2019-05-03T08:35:24.409Z,32096.00
2019-05-03T08:37:28.772Z,26176.00
2019-05-03T08:38:29.010Z,24960.00
2019-05-03T08:40:34.992Z,33216.00
2019-05-03T08:41:35.210Z,34720.00
2019-05-03T08:43:39.590Z,31520.00
2019-05-03T08:44:39.831Z,55904.00
2019-05-03T08:46:47.235Z,41184.00
2019-05-03T08:47:45.745Z,49792.00
2019-05-03T08:49:51.403Z,51552.00
2019-05-03T08:50:51.644Z,80192.00
2019-05-03T08:52:57.324Z,82848.00
2019-05-03T08:53:57.566Z,75904.00
2019-05-03T08:56:02.244Z,33248.00
2019-05-03T08:57:02.486Z,78304.00
2019-05-03T08:59:07.183Z,45408.00
2019-05-03T09:00:07.425Z,36992.00
2019-05-03T09:02:03.683Z,25952.00
2019-05-03T09:03:02.296Z,31296.00
2019-05-03T09:05:06.969Z,40512.00
2019-05-03T09:06:07.214Z,78016.00
2019-05-03T09:08:11.915Z,33568.00
2019-05-03T09:09:12.149Z,28704.00
2019-05-03T09:11:16.836Z,21216.00
2019-05-03T09:12:17.077Z,36416.00
2019-05-03T09:14:21.761Z,21600.00
2019-05-03T09:15:22.007Z,25664.00
2019-05-03T09:17:26.704Z,28160.00
2019-05-03T09:18:26.948Z,24160.00
2019-05-03T09:20:32.454Z,94816.00
2019-05-03T09:21:31.860Z,22176.00
2019-05-03T09:23:36.057Z,13612.00
2019-05-03T09:24:36.297Z,12144.00
2019-05-03T09:26:40.968Z,10824.00
2019-05-03T09:27:41.213Z,10640.00
2019-05-03T09:29:46.347Z,10336.00
2019-05-03T09:30:46.135Z,11032.00
2019-05-03T09:32:50.822Z,13340.00
2019-05-03T09:33:51.066Z,14264.00
2019-05-03T09:35:55.743Z,13372.00
2019-05-03T09:36:55.985Z,13704.00
2019-05-03T09:39:00.677Z,14640.00
2019-05-03T09:40:00.918Z,13280.00
2019-05-03T09:41:55.466Z,9848.00
2019-05-03T09:42:55.172Z,9704.00
2019-05-03T09:44:59.444Z,13976.00
2019-05-03T09:45:59.687Z,16348.00
2019-05-03T09:48:05.710Z,19552.00
2019-05-03T09:49:13.349Z,13400.00
2019-05-03T09:51:09.279Z,13932.00
2019-05-03T09:52:09.521Z,15780.00
2019-05-03T09:54:14.893Z,18496.00
2019-05-03T09:55:14.579Z,19264.00
2019-05-03T09:57:19.100Z,23264.00
2019-05-03T09:58:19.344Z,23200.00
2019-05-03T10:00:24.531Z,20160.00
2019-05-03T10:01:25.587Z,15956.00
2019-05-03T10:03:28.959Z,14000.00
2019-05-03T10:04:29.200Z,13320.00
2019-05-03T10:06:35.938Z,11744.00
2019-05-03T10:07:35.161Z,10832.00
2019-05-03T10:09:40.762Z,9364.00
2019-05-03T10:10:41.004Z,9316.00
2019-05-03T10:12:45.669Z,9068.00
2019-05-03T10:13:48.195Z,8796.00
2019-05-03T10:15:50.586Z,8220.00
2019-05-03T10:16:50.832Z,8236.00
2019-05-03T10:18:55.508Z,8692.00
2019-05-03T10:19:55.748Z,8812.00
2019-05-03T10:21:49.341Z,9912.00
2019-05-03T10:22:49.580Z,11376.00
2019-05-03T10:24:55.000Z,15932.00
2019-05-03T10:25:55.218Z,73184.00
2019-05-03T10:27:58.665Z,18496.00
2019-05-03T10:28:58.904Z,18176.00
2019-05-03T10:31:07.498Z,15692.00
2019-05-03T10:32:03.838Z,16268.00
2019-05-03T10:34:08.519Z,20704.00
2019-05-03T10:35:08.755Z,27232.00
2019-05-03T10:37:15.153Z,37920.00
2019-05-03T10:38:15.126Z,34240.00
2019-05-03T10:40:18.341Z,20160.00
2019-05-03T10:41:18.579Z,17024.00
2019-05-03T10:43:24.775Z,13392.00
2019-05-03T10:44:24.602Z,11500.00
2019-05-03T10:46:29.190Z,10204.00
2019-05-03T10:47:29.431Z,11164.00
2019-05-03T10:49:35.212Z,16136.00
2019-05-03T10:50:34.802Z,20864.00
2019-05-03T10:52:38.525Z,21664.00
2019-05-03T10:53:38.764Z,24064.00
2019-05-03T10:55:45.104Z,27456.00
2019-05-03T10:56:45.261Z,57664.00
2019-05-03T10:58:48.356Z,30144.00
2019-05-03T10:59:48.596Z,28544.00
2019-05-03T11:01:42.210Z,118400.00
2019-05-03T11:02:42.471Z,38336.00
2019-05-03T11:04:47.155Z,85568.00
2019-05-03T11:05:47.395Z,120608.00
2019-05-03T11:07:53.073Z,26656.00
2019-05-03T11:08:54.621Z,29120.00
2019-05-03T11:10:58.004Z,28640.00
2019-05-03T11:11:58.246Z,27552.00
2019-05-03T11:14:05.228Z,28832.00
2019-05-03T11:15:03.158Z,109664.00
2019-05-03T11:17:07.854Z,33152.00
2019-05-03T11:18:08.097Z,28160.00
2019-05-03T11:20:22.214Z,23200.00
2019-05-03T11:21:14.442Z,23712.00
2019-05-03T11:23:18.703Z,24512.00
2019-05-03T11:24:18.952Z,26976.00
2019-05-03T11:26:25.138Z,29696.00
2019-05-03T11:27:24.800Z,31136.00
2019-05-03T11:29:28.091Z,27744.00
2019-05-03T11:30:28.336Z,27296.00
2019-05-03T11:32:35.134Z,25664.00
2019-05-03T11:33:35.229Z,26496.00
2019-05-03T11:35:37.929Z,24064.00
2019-05-03T11:36:38.173Z,22016.00
2019-05-03T11:38:42.847Z,17536.00
2019-05-03T11:39:45.087Z,15284.00
2019-05-03T11:41:36.697Z,13376.00
2019-05-03T11:42:36.939Z,13104.00
2019-05-03T11:44:41.608Z,16640.00
2019-05-03T11:45:41.860Z,20672.00
2019-05-03T11:47:46.543Z,40768.00
2019-05-03T11:48:46.780Z,52288.00
2019-05-03T11:50:50.971Z,38368.00
2019-05-03T11:51:51.213Z,30912.00
2019-05-03T11:53:55.378Z,32576.00
2019-05-03T11:54:55.620Z,34304.00
2019-05-03T11:56:59.801Z,24736.00
2019-05-03T11:58:00.041Z,21696.00
2019-05-03T12:00:05.334Z,17664.00
2019-05-03T12:01:14.934Z,16768.00
2019-05-03T12:03:09.132Z,15276.00
2019-05-03T12:04:09.378Z,14924.00
2019-05-03T12:06:15.669Z,15412.00
2019-05-03T12:07:15.325Z,15932.00
2019-05-03T12:09:19.032Z,17312.00
2019-05-03T12:10:32.452Z,18624.00
2019-05-03T12:12:14.735Z,23936.00
2019-05-03T12:13:15.593Z,28768.00
2019-05-03T12:15:17.296Z,48512.00
2019-05-03T12:16:25.655Z,118752.00
2019-05-03T12:18:25.160Z,107584.00
2019-05-03T12:19:30.472Z,92064.00
2019-05-03T12:21:29.449Z,117216.00
2019-05-03T12:22:28.889Z,56704.00
2019-05-03T12:24:35.810Z,108736.00
2019-05-03T12:25:35.783Z,53952.00
2019-05-03T12:27:38.096Z,36992.00
2019-05-03T12:28:38.335Z,108576.00
2019-05-03T12:30:44.905Z,76928.00
2019-05-03T12:31:45.379Z,112128.00
2019-05-03T12:33:47.457Z,106848.00
2019-05-03T12:34:47.702Z,110112.00
2019-05-03T12:36:52.441Z,99456.00
2019-05-03T12:37:52.691Z,49184.00
2019-05-03T12:39:57.396Z,30400.00
2019-05-03T12:40:57.643Z,29856.00
2019-05-03T12:43:01.819Z,19264.00
2019-05-03T12:44:02.067Z,16864.00
2019-05-03T12:46:06.264Z,13768.00
2019-05-03T12:47:06.510Z,12992.00
2019-05-03T12:49:10.689Z,12668.00
2019-05-03T12:50:10.930Z,12368.00
2019-05-03T12:52:05.257Z,11820.00
2019-05-03T12:53:04.993Z,11488.00
2019-05-03T12:55:08.502Z,11140.00
2019-05-03T12:56:13.043Z,11716.00
2019-05-03T12:58:14.929Z,14668.00
2019-05-03T12:59:13.174Z,17024.00
2019-05-03T13:01:17.428Z,17504.00
2019-05-03T13:02:17.670Z,19136.00
2019-05-03T13:04:21.841Z,25376.00
2019-05-03T13:05:22.087Z,73472.00
2019-05-03T13:07:26.277Z,27968.00
2019-05-03T13:08:26.519Z,26368.00
2019-05-03T13:10:30.705Z,65440.00
2019-05-03T13:11:30.951Z,73696.00
2019-05-03T13:13:35.777Z,41280.00
2019-05-03T13:14:35.365Z,31648.00
2019-05-03T13:16:39.553Z,27584.00
2019-05-03T13:17:39.796Z,28288.00
2019-05-03T13:19:45.198Z,28288.00
2019-05-03T13:20:45.302Z,28704.00
2019-05-03T13:22:48.402Z,34816.00
2019-05-03T13:23:48.653Z,36224.00
2019-05-03T13:25:52.844Z,26656.00
2019-05-03T13:26:53.088Z,24352.00
2019-05-03T13:28:59.685Z,20704.00
2019-05-03T13:29:57.500Z,18912.00
2019-05-03T13:32:00.842Z,17152.00
2019-05-03T13:32:50.862Z,19616.00
2019-05-03T13:34:55.378Z,18880.00
2019-05-03T13:35:55.354Z,19744.00
2019-05-03T13:37:59.546Z,19904.00
2019-05-03T13:39:11.510Z,19616.00
2019-05-03T13:41:06.205Z,29536.00
2019-05-03T13:42:05.674Z,56448.00
2019-05-03T13:44:08.401Z,20576.00
2019-05-03T13:45:08.670Z,19104.00
2019-05-03T13:47:14.878Z,15276.00
2019-05-03T13:48:15.334Z,13740.00
2019-05-03T13:50:17.319Z,12852.00
2019-05-03T13:51:17.560Z,13660.00
2019-05-03T13:53:21.745Z,15172.00
2019-05-03T13:54:21.983Z,15228.00
2019-05-03T13:56:27.194Z,15628.00
2019-05-03T13:57:27.477Z,18752.00
2019-05-03T13:59:31.626Z,29600.00
2019-05-03T14:00:31.866Z,24000.00
2019-05-03T14:02:36.104Z,20480.00
2019-05-03T14:03:36.298Z,19072.00
2019-05-03T14:05:40.461Z,18624.00
2019-05-03T14:06:40.704Z,19136.00
2019-05-03T14:08:45.447Z,21024.00
2019-05-03T14:09:45.306Z,32416.00
2019-05-03T14:11:38.252Z,71136.00
2019-05-03T14:12:38.494Z,28352.00
2019-05-03T14:14:42.658Z,26208.00
2019-05-03T14:15:42.919Z,26848.00
2019-05-03T14:17:47.090Z,26464.00
2019-05-03T14:18:47.338Z,22976.00
2019-05-03T14:20:51.510Z,19264.00
2019-05-03T14:21:51.750Z,18368.00
2019-05-03T14:23:56.427Z,17472.00
2019-05-03T14:24:56.674Z,15964.00
2019-05-03T14:27:00.874Z,14556.00
2019-05-03T14:28:01.106Z,14220.00
2019-05-03T14:30:05.460Z,12900.00
2019-05-03T14:31:05.521Z,12624.00
2019-05-03T14:33:09.714Z,12616.00
2019-05-03T14:34:09.963Z,13148.00
2019-05-03T14:36:15.912Z,15488.00
2019-05-03T14:37:14.372Z,17024.00
2019-05-03T14:39:18.562Z,21024.00
2019-05-03T14:40:18.807Z,23008.00
2019-05-03T14:42:11.902Z,23872.00
2019-05-03T14:43:12.146Z,26080.00
2019-05-03T14:45:16.339Z,21248.00
2019-05-03T14:46:29.230Z,18720.00
2019-05-03T14:48:20.770Z,16392.00
2019-05-03T14:49:21.017Z,19360.00
2019-05-03T14:51:25.436Z,22304.00
2019-05-03T14:52:28.297Z,22848.00
2019-05-03T14:54:29.605Z,22528.00
2019-05-03T14:55:29.842Z,21856.00
2019-05-03T14:57:35.088Z,21120.00
2019-05-03T14:58:35.315Z,21184.00
2019-05-03T15:00:38.938Z,20064.00
2019-05-03T15:01:39.183Z,18752.00
2019-05-03T15:03:43.854Z,17072.00
2019-05-03T15:04:44.093Z,15556.00
2019-05-03T15:06:48.754Z,14600.00
2019-05-03T15:07:48.998Z,14212.00
2019-05-03T15:09:55.333Z,13716.00
2019-05-03T15:10:54.728Z,13820.00
2019-05-03T15:12:58.617Z,15144.00
2019-05-03T15:13:58.864Z,15840.00
2019-05-03T15:16:05.113Z,16476.00
2019-05-03T15:17:05.162Z,16372.00
2019-05-03T15:19:07.943Z,15980.00
2019-05-03T15:20:08.185Z,16464.00
2019-05-03T15:22:01.291Z,15012.00
2019-05-03T15:23:01.530Z,14408.00
2019-05-03T15:25:05.711Z,15608.00
2019-05-03T15:26:05.957Z,16352.00
2019-05-03T15:28:10.610Z,15444.00
2019-05-03T15:29:10.856Z,15856.00
2019-05-03T15:31:15.536Z,16032.00
2019-05-03T15:32:15.801Z,15656.00
2019-05-03T15:34:19.962Z,14980.00
2019-05-03T15:35:20.206Z,15228.00
2019-05-03T15:37:25.428Z,15284.00
2019-05-03T15:38:24.628Z,15884.00
2019-05-03T15:40:29.310Z,17760.00
2019-05-03T15:41:29.559Z,19552.00
2019-05-03T15:43:34.810Z,19392.00
2019-05-03T15:44:34.488Z,18560.00
2019-05-03T15:46:38.647Z,17248.00
2019-05-03T15:47:38.890Z,17344.00
2019-05-03T15:49:44.794Z,15812.00
2019-05-03T15:50:44.620Z,15020.00
2019-05-03T15:52:47.984Z,15756.00
2019-05-03T15:53:48.227Z,15588.00
2019-05-03T15:55:52.421Z,13088.00
2019-05-03T15:56:54.285Z,12652.00
2019-05-03T15:58:56.838Z,11888.00
2019-05-03T15:59:57.079Z,11572.00
2019-05-03T16:01:50.681Z,10716.00
2019-05-03T16:02:50.921Z,10400.00
2019-05-03T16:04:58.528Z,9512.00
2019-05-03T16:05:55.850Z,9448.00
2019-05-03T16:08:00.013Z,10792.00
2019-05-03T16:09:00.251Z,11156.00
2019-05-03T16:11:05.395Z,12376.00
2019-05-03T16:12:05.083Z,11608.00
2019-05-03T16:14:08.849Z,12036.00
2019-05-03T16:15:09.090Z,12132.00
2019-05-03T16:17:14.715Z,12064.00
2019-05-03T16:18:14.810Z,12112.00
2019-05-03T16:20:18.695Z,13144.00
2019-05-03T16:21:18.943Z,12272.00
2019-05-03T16:23:24.782Z,12088.00
2019-05-03T16:24:24.906Z,11772.00
2019-05-03T16:26:27.512Z,11920.00
2019-05-03T16:27:27.756Z,13240.00
2019-05-03T16:29:31.931Z,15904.00
2019-05-03T16:30:32.171Z,16224.00
2019-05-03T16:32:36.560Z,16416.00
2019-05-03T16:33:36.595Z,16160.00
2019-05-03T16:35:40.787Z,14808.00
2019-05-03T16:36:41.026Z,14256.00
2019-05-03T16:38:45.189Z,13296.00
2019-05-03T16:39:45.527Z,13128.00
2019-05-03T16:41:39.027Z,12744.00
2019-05-03T16:42:39.269Z,12384.00
2019-05-03T16:44:44.406Z,11968.00
2019-05-03T16:45:44.481Z,11564.00
2019-05-03T16:47:47.858Z,10696.00
2019-05-03T16:48:48.097Z,10428.00
2019-05-03T16:50:52.776Z,9544.00
2019-05-03T16:51:54.845Z,8568.00
2019-05-03T16:53:57.185Z,8052.00
2019-05-03T16:54:57.424Z,7844.00
2019-05-03T16:57:01.608Z,7752.00
2019-05-03T16:58:01.853Z,7824.00
2019-05-03T17:00:06.020Z,7492.00
2019-05-03T17:01:06.257Z,7588.00
2019-05-03T17:03:10.438Z,7888.00
2019-05-03T17:04:10.678Z,7924.00
2019-05-03T17:06:14.887Z,7300.00
2019-05-03T17:07:15.272Z,7296.00
2019-05-03T17:09:19.267Z,7080.00
2019-05-03T17:10:19.503Z,6980.00
2019-05-03T17:12:12.610Z,6876.00
2019-05-03T17:13:14.698Z,6852.00
2019-05-03T17:15:17.013Z,6568.00
2019-05-03T17:16:17.255Z,6380.00
2019-05-03T17:18:21.443Z,6312.00
2019-05-03T17:19:21.683Z,6548.00
2019-05-03T17:21:25.862Z,6864.00
2019-05-03T17:22:26.103Z,6856.00
2019-05-03T17:24:30.268Z,6236.00
2019-05-03T17:25:30.508Z,6184.00
2019-05-03T17:27:34.687Z,6772.00
2019-05-03T17:28:35.364Z,7036.00
2019-05-03T17:30:39.114Z,6872.00
2019-05-03T17:31:39.350Z,6604.00
2019-05-03T17:33:51.402Z,5876.00
2019-05-03T17:34:45.375Z,5632.00
2019-05-03T17:36:47.953Z,5548.00
2019-05-03T17:37:48.191Z,5472.00
2019-05-03T17:39:52.344Z,4988.00
2019-05-03T17:40:52.585Z,4896.00
2019-05-03T17:42:56.768Z,4896.00
2019-05-03T17:43:57.010Z,4808.00
2019-05-03T17:46:01.171Z,4300.00
2019-05-03T17:47:01.411Z,4168.00
2019-05-03T17:49:05.592Z,3860.00
2019-05-03T17:50:05.830Z,3800.00
2019-05-03T17:51:58.935Z,3524.00
2019-05-03T17:52:59.172Z,3272.00
2019-05-03T17:55:04.985Z,2980.00
2019-05-03T17:56:04.666Z,2868.00
2019-05-03T17:58:07.765Z,2692.00
2019-05-03T17:59:08.009Z,2584.00
2019-05-03T18:01:12.175Z,2328.00
2019-05-03T18:02:12.415Z,2216.00
2019-05-03T18:04:16.599Z,2020.00
2019-05-03T18:05:16.839Z,1948.00
2019-05-03T18:07:21.024Z,1820.00
2019-05-03T18:08:21.263Z,1740.00
2019-05-03T18:10:25.914Z,1540.00
2019-05-03T18:11:26.153Z,1448.00
2019-05-03T18:13:32.603Z,1284.00
2019-05-03T18:14:30.576Z,1212.00
2019-05-03T18:16:35.061Z,1092.00
2019-05-03T18:17:35.323Z,1056.00
2019-05-03T18:19:39.145Z,984.00
2019-05-03T18:20:39.383Z,936.00
2019-05-03T18:22:43.601Z,860.00
2019-05-03T18:23:45.468Z,824.00
2019-05-03T18:25:47.977Z,736.00
2019-05-03T18:26:48.213Z,680.00
2019-05-03T18:28:52.394Z,588.00
2019-05-03T18:29:52.633Z,552.00
2019-05-03T18:31:45.713Z,472.00
2019-05-03T18:32:45.951Z,428.00
2019-05-03T18:34:50.626Z,352.00
2019-05-03T18:35:50.865Z,324.00
2019-05-03T18:37:55.054Z,272.00